Time;durP1;ratioP1;P1;durP2;ratioP2;P2;SDS_P1;SDS_P2;PMS_P1;PMS_P2;Temp;Humidity;BMP_temperature;BMP_pressure;BME280_temperature;BME280_humidity;BME280_pressure;Samples;Min_cycle;Max_cycle;Signal;HPM_P1;HPM_P2
2022/08/05 00:00:27;;;;;;;2.93;2.63;;;26.30;51.10;;;;;;4125063;28;20698;-78
2022/08/05 00:02:30;;;;;;;4.13;2.73;;;26.30;51.90;;;;;;4140467;28;20722;-78
2022/08/05 00:04:32;;;;;;;2.90;2.30;;;26.30;52.10;;;;;;4136922;28;20835;-78
2022/08/05 00:06:34;;;;;;;3.83;2.60;;;26.20;52.30;;;;;;4124917;28;20215;-78
2022/08/05 00:08:37;;;;;;;4.50;2.73;;;26.10;52.30;;;;;;4138403;28;20734;-78
2022/08/05 00:10:39;;;;;;;8.87;2.50;;;26.10;53.70;;;;;;4119503;28;20714;-77
2022/08/05 00:12:41;;;;;;;2.90;2.60;;;26.10;53.70;;;;;;4123499;28;20304;-78
2022/08/05 00:14:43;;;;;;;4.23;2.90;;;26.00;53.80;;;;;;4142129;28;20208;-78
2022/08/05 00:16:44;;;;;;;2.53;2.27;;;26.00;54.30;;;;;;4142851;28;20258;-78
2022/08/05 00:18:49;;;;;;;2.40;2.10;;;25.90;54.30;;;;;;4147870;28;20192;-78
2022/08/05 00:20:51;;;;;;;3.60;2.60;;;25.90;55.30;;;;;;4153506;28;20942;-78
2022/08/05 00:22:53;;;;;;;2.37;2.17;;;25.90;55.70;;;;;;4146012;28;20283;-78
2022/08/05 00:24:55;;;;;;;2.40;2.20;;;25.80;56.00;;;;;;4146292;28;20207;-77
2022/08/05 00:26:58;;;;;;;3.80;2.10;;;25.80;55.80;;;;;;4122301;28;20251;-78
2022/08/05 00:28:59;;;;;;;2.37;2.17;;;25.70;59.40;;;;;;4119725;28;20235;-78
2022/08/05 00:31:01;;;;;;;2.80;2.33;;;25.60;58.40;;;;;;4138511;28;20274;-79
2022/08/05 00:33:03;;;;;;;2.67;2.40;;;25.60;58.90;;;;;;4135950;28;20235;-79
2022/08/05 00:35:08;;;;;;;2.43;2.20;;;25.60;61.20;;;;;;4138473;28;20236;-79
2022/08/05 00:37:10;;;;;;;3.10;2.40;;;25.60;61.40;;;;;;4142597;28;20262;-79
2022/08/05 00:39:12;;;;;;;3.83;2.50;;;25.50;60.20;;;;;;4144004;28;20215;-79
2022/08/05 00:41:14;;;;;;;3.77;2.23;;;25.50;66.10;;;;;;4141822;28;20230;-79
2022/08/05 00:43:16;;;;;;;2.60;2.30;;;25.40;67.50;;;;;;4120183;28;20221;-79
2022/08/05 00:45:18;;;;;;;2.80;2.40;;;25.30;68.00;;;;;;4140577;28;20212;-79
2022/08/05 00:47:19;;;;;;;5.27;2.60;;;25.30;69.20;;;;;;4140441;28;20272;-79
2022/08/05 00:49:21;;;;;;;5.33;2.57;;;25.20;68.80;;;;;;4142048;28;20682;-79
2022/08/05 00:51:25;;;;;;;2.93;2.20;;;25.20;73.00;;;;;;4140567;28;20741;-79
2022/08/05 00:53:26;;;;;;;4.87;2.60;;;25.10;72.60;;;;;;4126701;28;20733;-79
2022/08/05 00:55:29;;;;;;;3.03;2.40;;;25.10;76.90;;;;;;4142918;28;20255;-79
2022/08/05 00:57:31;;;;;;;5.10;2.53;;;25.00;79.10;;;;;;4123684;28;20255;-79
2022/08/05 00:59:33;;;;;;;5.60;2.37;;;24.90;78.30;;;;;;4143914;28;20263;-79
2022/08/05 01:01:35;;;;;;;5.90;2.40;;;24.90;81.60;;;;;;4139142;28;20931;-79
2022/08/05 01:03:37;;;;;;;3.00;2.70;;;24.80;79.60;;;;;;4138494;28;20212;-79
2022/08/05 01:05:40;;;;;;;3.20;2.20;;;24.80;80.60;;;;;;4137738;28;20200;-79
2022/08/05 01:07:43;;;;;;;5.57;2.50;;;24.80;83.10;;;;;;4104303;28;20233;-79
2022/08/05 01:09:45;;;;;;;2.80;2.30;;;24.70;85.30;;;;;;4124078;28;20216;-79
2022/08/05 01:11:49;;;;;;;4.70;2.43;;;24.60;89.50;;;;;;4141096;28;20259;-79
2022/08/05 01:14:05;;;;;;;3.70;2.60;;;24.60;86.90;;;;;;4122769;28;20311;-79
2022/08/05 01:16:12;;;;;;;5.13;2.57;;;24.60;89.90;;;;;;4138215;28;20984;-79
2022/08/05 01:18:20;;;;;;;5.00;2.73;;;24.50;89.10;;;;;;4138383;28;20655;-79
2022/08/05 01:20:31;;;;;;;3.63;2.60;;;24.50;91.60;;;;;;4138188;28;20219;-79
2022/08/05 01:22:54;;;;;;;4.43;2.93;;;24.40;93.50;;;;;;4122427;28;20255;-79
2022/08/05 01:25:29;;;;;;;4.97;2.70;;;24.30;93.80;;;;;;4141911;28;20218;-79
2022/08/05 01:27:51;;;;;;;4.10;2.67;;;24.30;92.60;;;;;;4100191;28;20218;-79
2022/08/05 01:29:58;;;;;;;4.40;2.50;;;24.20;94.80;;;;;;4142400;28;20261;-79
2022/08/05 01:32:03;;;;;;;3.80;2.63;;;24.20;95.60;;;;;;4105937;28;20229;-79
2022/08/05 01:34:11;;;;;;;5.63;2.60;;;24.20;94.30;;;;;;4141630;28;20221;-79
2022/08/05 01:36:17;;;;;;;3.07;2.37;;;24.10;95.00;;;;;;4125549;28;20271;-79
2022/08/05 01:38:22;;;;;;;3.10;2.40;;;24.10;95.20;;;;;;4143077;28;20207;-79
2022/08/05 01:40:28;;;;;;;3.97;2.77;;;24.00;97.90;;;;;;4136381;28;20299;-79
2022/08/05 01:42:31;;;;;;;5.67;2.60;;;23.90;98.30;;;;;;4118075;28;20347;-79
2022/08/05 01:44:35;;;;;;;5.47;2.50;;;23.90;97.70;;;;;;4119178;28;20216;-79
2022/08/05 01:46:38;;;;;;;3.47;2.40;;;23.90;97.40;;;;;;4138655;28;20660;-79
2022/08/05 01:48:41;;;;;;;2.90;2.37;;;23.90;98.10;;;;;;4137503;28;20290;-79
2022/08/05 01:50:45;;;;;;;4.77;2.70;;;23.90;98.70;;;;;;4136730;28;20276;-79
2022/08/05 01:52:50;;;;;;;5.40;2.60;;;23.80;98.00;;;;;;4128515;28;20649;-79
2022/08/05 01:54:56;;;;;;;6.70;2.70;;;23.80;98.80;;;;;;4122750;28;20308;-79
2022/08/05 01:57:00;;;;;;;3.77;2.77;;;23.80;99.30;;;;;;4116149;28;20235;-79
2022/08/05 01:59:06;;;;;;;4.03;2.50;;;23.70;99.50;;;;;;4137854;28;20673;-79
2022/08/05 02:01:11;;;;;;;6.20;2.83;;;23.70;99.40;;;;;;4135161;28;20212;-79
2022/08/05 02:03:18;;;;;;;6.43;2.97;;;23.70;99.60;;;;;;4137692;28;20824;-79
2022/08/05 02:05:22;;;;;;;2.93;2.10;;;23.70;99.60;;;;;;4138303;28;20642;-79
2022/08/05 02:07:24;;;;;;;4.23;2.50;;;23.60;99.90;;;;;;4137361;28;20225;-79
2022/08/05 02:09:26;;;;;;;3.67;2.30;;;23.60;99.90;;;;;;4138665;28;20242;-79
2022/08/05 02:11:37;;;;;;;3.77;2.70;;;23.60;99.90;;;;;;4135440;28;20597;-79
2022/08/05 02:13:44;;;;;;;5.13;2.60;;;23.60;99.90;;;;;;4119113;28;20209;-77
2022/08/05 02:15:49;;;;;;;6.73;2.50;;;23.50;99.90;;;;;;4136827;28;20332;-78
2022/08/05 02:17:58;;;;;;;3.33;2.30;;;23.50;99.90;;;;;;4120939;28;20294;-78
2022/08/05 02:20:04;;;;;;;3.17;2.67;;;23.40;99.90;;;;;;4133585;28;20205;-78
2022/08/05 02:22:15;;;;;;;4.83;3.00;;;23.40;99.90;;;;;;4138623;28;20274;-78
2022/08/05 02:24:20;;;;;;;6.77;2.70;;;23.30;99.90;;;;;;4137200;28;20213;-78
2022/08/05 02:26:31;;;;;;;2.87;2.50;;;23.30;99.90;;;;;;4137997;28;20242;-78
2022/08/05 02:28:37;;;;;;;3.50;2.80;;;23.20;99.90;;;;;;4118080;28;20821;-78
2022/08/05 02:30:44;;;;;;;3.47;2.80;;;23.20;99.90;;;;;;4139968;28;20631;-79
2022/08/05 02:32:50;;;;;;;4.03;2.90;;;23.10;99.90;;;;;;4137088;28;20253;-78
2022/08/05 02:34:55;;;;;;;3.83;2.53;;;23.10;99.90;;;;;;4131413;28;20250;-78
2022/08/05 02:37:02;;;;;;;3.90;2.67;;;23.10;99.90;;;;;;4119054;28;20231;-78
2022/08/05 02:39:07;;;;;;;4.03;2.67;;;23.10;99.90;;;;;;4141033;28;20215;-78
2022/08/05 02:41:10;;;;;;;3.97;2.73;;;23.00;99.90;;;;;;4134042;28;20659;-78
2022/08/05 02:43:14;;;;;;;3.40;2.70;;;23.00;99.90;;;;;;4138599;28;20213;-78
2022/08/05 02:45:17;;;;;;;4.80;2.63;;;23.00;99.90;;;;;;4137929;28;20421;-79
2022/08/05 02:47:20;;;;;;;3.47;2.70;;;23.00;99.90;;;;;;4116513;28;20306;-78
2022/08/05 02:49:25;;;;;;;4.90;2.80;;;22.90;99.90;;;;;;4121026;28;20619;-78
2022/08/05 02:51:30;;;;;;;2.83;2.43;;;22.90;99.90;;;;;;4141198;28;20827;-78
2022/08/05 02:53:33;;;;;;;5.33;2.57;;;22.90;99.90;;;;;;4141680;28;20742;-79
2022/08/05 02:55:36;;;;;;;3.00;2.70;;;22.80;99.90;;;;;;4135664;28;20208;-79
2022/08/05 02:57:39;;;;;;;3.00;2.37;;;22.90;99.90;;;;;;4120376;28;20246;-78
2022/08/05 02:59:44;;;;;;;4.57;2.67;;;22.80;99.90;;;;;;4138344;28;20711;-78
2022/08/05 03:01:50;;;;;;;6.43;2.80;;;22.80;99.90;;;;;;4134848;28;20236;-78
2022/08/05 03:03:56;;;;;;;4.83;2.80;;;22.70;99.90;;;;;;4140284;28;20209;-78
2022/08/05 03:05:59;;;;;;;4.67;2.80;;;22.70;99.90;;;;;;4143842;28;20299;-78
2022/08/05 03:08:03;;;;;;;3.23;2.73;;;22.70;99.90;;;;;;4144195;28;20252;-78
2022/08/05 03:10:05;;;;;;;4.10;2.93;;;22.60;99.90;;;;;;4141716;28;20554;-78
2022/08/05 03:12:26;;;;;;;4.83;2.87;;;22.60;99.90;;;;;;4141150;28;20231;-78
2022/08/05 03:14:28;;;;;;;2.97;2.47;;;22.60;99.90;;;;;;4139490;28;20236;-78
2022/08/05 03:16:30;;;;;;;7.67;3.27;;;22.50;99.90;;;;;;4120139;28;20293;-78
2022/08/05 03:18:32;;;;;;;3.73;2.70;;;22.50;99.90;;;;;;4116884;28;20215;-78
2022/08/05 03:20:34;;;;;;;4.53;2.50;;;22.50;99.90;;;;;;4139957;28;20208;-78
2022/08/05 03:22:36;;;;;;;5.07;3.07;;;22.50;99.90;;;;;;4119162;28;20228;-78
2022/08/05 03:24:40;;;;;;;4.50;2.70;;;22.40;99.90;;;;;;4143774;28;20228;-78
2022/08/05 03:26:42;;;;;;;4.67;2.90;;;22.40;99.90;;;;;;4126908;28;20831;-78
2022/08/05 03:28:44;;;;;;;3.73;2.60;;;22.40;99.90;;;;;;4139802;28;20213;-79
2022/08/05 03:30:47;;;;;;;3.57;2.40;;;22.40;99.90;;;;;;4135706;28;20823;-78
2022/08/05 03:32:49;;;;;;;8.10;3.20;;;22.30;99.90;;;;;;4129965;28;20233;-78
2022/08/05 03:34:53;;;;;;;3.70;2.93;;;22.30;99.90;;;;;;4143938;28;20280;-78
2022/08/05 03:36:55;;;;;;;4.07;2.90;;;22.30;99.90;;;;;;4147610;28;20311;-78
2022/08/05 03:38:57;;;;;;;4.83;2.80;;;22.30;99.90;;;;;;4146253;28;20809;-78
2022/08/05 03:41:01;;;;;;;4.97;2.73;;;22.20;99.90;;;;;;4140315;28;20300;-78
2022/08/05 03:43:03;;;;;;;5.37;2.90;;;22.20;99.90;;;;;;4136607;28;20229;-78
2022/08/05 03:45:06;;;;;;;4.27;2.63;;;22.10;99.90;;;;;;4137163;28;20248;-78
2022/08/05 03:47:07;;;;;;;4.10;2.80;;;22.20;99.90;;;;;;4139053;28;20297;-78
2022/08/05 03:49:09;;;;;;;3.40;2.63;;;22.10;99.90;;;;;;4117620;28;20237;-78
2022/08/05 03:51:15;;;;;;;4.70;2.30;;;22.10;99.90;;;;;;4137786;28;20215;-78
2022/08/05 03:53:27;;;;;;;6.33;2.90;;;22.10;99.90;;;;;;4139394;28;20227;-78
2022/08/05 03:55:36;;;;;;;5.60;2.20;;;22.10;99.90;;;;;;4137291;28;20239;-78
2022/08/05 03:57:42;;;;;;;5.67;3.00;;;22.10;99.90;;;;;;4136066;28;20236;-78
2022/08/05 03:59:49;;;;;;;5.40;2.40;;;22.10;99.90;;;;;;4142747;28;20219;-78
2022/08/05 04:01:53;;;;;;;4.50;2.50;;;22.10;99.90;;;;;;4128327;28;20869;-78
2022/08/05 04:03:56;;;;;;;7.53;2.83;;;22.00;99.90;;;;;;4142179;28;20243;-78
2022/08/05 04:05:58;;;;;;;7.23;3.00;;;22.00;99.90;;;;;;4143959;28;20232;-78
2022/08/05 04:08:02;;;;;;;6.70;2.80;;;22.00;99.90;;;;;;4134805;28;20204;-78
2022/08/05 04:10:04;;;;;;;2.93;2.60;;;22.00;99.90;;;;;;4139584;28;20218;-78
2022/08/05 04:12:08;;;;;;;6.47;3.17;;;21.90;99.90;;;;;;4138121;28;20228;-78
2022/08/05 04:14:12;;;;;;;4.03;2.67;;;21.90;99.90;;;;;;4140678;28;20224;-78
2022/08/05 04:16:14;;;;;;;3.57;3.00;;;21.90;99.90;;;;;;4123100;28;20210;-78
2022/08/05 04:18:16;;;;;;;3.73;2.67;;;21.90;99.90;;;;;;4136663;28;20205;-78
2022/08/05 04:20:19;;;;;;;8.77;3.20;;;21.90;99.90;;;;;;4145071;28;20204;-78
2022/08/05 04:22:21;;;;;;;5.80;2.90;;;21.90;99.90;;;;;;4138121;28;20315;-79
2022/08/05 04:24:23;;;;;;;4.10;2.70;;;21.90;99.90;;;;;;4142105;28;20216;-79
2022/08/05 04:26:25;;;;;;;3.67;2.60;;;21.90;99.90;;;;;;4126038;28;20300;-79
2022/08/05 04:28:27;;;;;;;5.57;3.10;;;21.90;99.90;;;;;;4141864;28;20786;-79
2022/08/05 04:30:30;;;;;;;5.53;3.10;;;21.90;99.90;;;;;;4123343;28;20244;-79
2022/08/05 04:32:32;;;;;;;5.47;3.20;;;21.90;99.90;;;;;;4138462;28;20251;-79
2022/08/05 04:34:35;;;;;;;3.90;2.63;;;21.90;99.90;;;;;;4138405;28;20220;-79
2022/08/05 04:36:37;;;;;;;4.50;3.23;;;21.90;99.90;;;;;;4120177;28;20334;-79
2022/08/05 04:38:38;;;;;;;4.27;2.87;;;21.90;99.90;;;;;;4140509;28;20282;-79
2022/08/05 04:40:41;;;;;;;5.50;2.83;;;21.90;99.90;;;;;;4142295;28;20618;-79
2022/08/05 04:42:43;;;;;;;5.37;3.10;;;21.90;99.90;;;;;;4138804;28;20232;-79
2022/08/05 04:44:45;;;;;;;6.87;3.47;;;21.90;99.90;;;;;;4140957;28;20302;-79
2022/08/05 04:46:48;;;;;;;4.97;3.23;;;21.90;99.90;;;;;;4120518;28;20216;-79
2022/08/05 04:48:50;;;;;;;7.07;3.30;;;21.90;99.90;;;;;;4122058;28;20197;-79
2022/08/05 04:50:52;;;;;;;4.67;3.00;;;21.90;99.90;;;;;;4121399;28;20296;-79
2022/08/05 04:52:54;;;;;;;6.30;3.30;;;21.90;99.90;;;;;;4140768;28;20386;-78
2022/08/05 04:54:56;;;;;;;5.77;3.20;;;21.90;99.90;;;;;;4134872;28;20216;-78
2022/08/05 04:56:58;;;;;;;5.73;3.07;;;21.90;99.90;;;;;;4119011;28;20241;-78
2022/08/05 04:59:00;;;;;;;4.87;2.90;;;21.90;99.90;;;;;;4136125;28;20584;-78
2022/08/05 05:01:02;;;;;;;5.63;2.67;;;21.90;99.90;;;;;;4121363;28;20213;-78
2022/08/05 05:03:07;;;;;;;4.00;2.50;;;21.90;99.90;;;;;;4124500;28;20956;-78
2022/08/05 05:05:09;;;;;;;3.67;2.50;;;21.90;99.90;;;;;;4125661;28;20228;-78
2022/08/05 05:07:11;;;;;;;8.70;2.97;;;21.80;99.90;;;;;;4137249;28;20883;-78
2022/08/05 05:09:13;;;;;;;5.57;2.80;;;21.90;99.90;;;;;;4140795;28;20696;-78
2022/08/05 05:11:15;;;;;;;4.33;3.03;;;21.80;99.90;;;;;;4121953;28;20239;-78
2022/08/05 05:13:18;;;;;;;5.10;2.90;;;21.80;99.90;;;;;;4142579;28;20219;-79
2022/08/05 05:15:20;;;;;;;6.73;2.77;;;21.80;99.90;;;;;;4123983;28;20251;-78
2022/08/05 05:17:22;;;;;;;5.90;2.90;;;21.80;99.90;;;;;;4141330;28;20283;-78
2022/08/05 05:19:26;;;;;;;6.10;2.70;;;21.80;99.90;;;;;;4134772;28;20207;-78
2022/08/05 05:21:28;;;;;;;5.60;2.90;;;21.80;99.90;;;;;;4136317;28;20289;-78
2022/08/05 05:23:30;;;;;;;12.43;3.30;;;21.80;99.90;;;;;;4123036;28;20296;-78
2022/08/05 05:25:32;;;;;;;6.33;2.97;;;21.80;99.90;;;;;;4120493;28;20243;-78
2022/08/05 05:27:35;;;;;;;6.83;3.23;;;21.80;99.90;;;;;;4138701;28;20273;-78
2022/08/05 05:29:37;;;;;;;7.63;3.70;;;21.80;99.90;;;;;;4140358;28;20211;-78
2022/08/05 05:31:39;;;;;;;5.13;3.23;;;21.80;99.90;;;;;;4137168;28;20242;-78
2022/08/05 05:33:44;;;;;;;11.17;3.50;;;21.80;99.90;;;;;;4121348;28;20302;-78
2022/08/05 05:35:48;;;;;;;6.37;3.50;;;21.80;99.90;;;;;;4115967;28;20300;-79
2022/08/05 05:37:51;;;;;;;5.50;3.37;;;21.80;99.90;;;;;;4140674;28;20224;-78
2022/08/05 05:39:53;;;;;;;4.77;3.30;;;21.80;99.90;;;;;;4137845;28;20205;-78
2022/08/05 05:41:55;;;;;;;8.43;3.13;;;21.80;99.90;;;;;;4137237;28;20323;-78
2022/08/05 05:43:57;;;;;;;8.53;3.27;;;21.80;99.90;;;;;;4125614;28;20208;-78
2022/08/05 05:45:59;;;;;;;5.73;3.30;;;21.80;99.90;;;;;;4139969;28;20211;-78
2022/08/05 05:48:01;;;;;;;7.13;3.43;;;21.80;99.90;;;;;;4125992;28;20200;-78
2022/08/05 05:50:04;;;;;;;4.37;3.13;;;21.80;99.90;;;;;;4138975;28;20235;-78
2022/08/05 05:52:07;;;;;;;6.53;3.10;;;21.80;99.90;;;;;;4143136;28;20242;-78
2022/08/05 05:54:09;;;;;;;6.67;2.83;;;21.80;99.90;;;;;;4137005;28;20236;-78
2022/08/05 05:56:11;;;;;;;6.70;3.23;;;21.90;99.90;;;;;;4140738;28;20235;-78
2022/08/05 05:58:13;;;;;;;5.43;3.27;;;21.90;99.90;;;;;;4135250;28;20220;-78
2022/08/05 06:00:17;;;;;;;5.67;2.93;;;22.00;99.90;;;;;;4121889;28;20232;-78
2022/08/05 06:02:18;;;;;;;5.73;3.30;;;22.10;99.90;;;;;;4118632;28;20342;-78
2022/08/05 06:04:21;;;;;;;4.50;2.93;;;22.20;99.90;;;;;;4138341;28;20299;-78
2022/08/05 06:06:23;;;;;;;6.27;2.97;;;22.20;99.90;;;;;;4135327;28;20215;-78
2022/08/05 06:08:26;;;;;;;5.20;2.87;;;22.30;99.90;;;;;;4138181;28;20709;-78
2022/08/05 06:10:28;;;;;;;5.87;3.10;;;22.40;99.90;;;;;;4122149;28;20245;-78
2022/08/05 06:12:30;;;;;;;6.23;2.87;;;22.40;99.90;;;;;;4136903;28;20678;-78
2022/08/05 06:14:33;;;;;;;5.20;3.03;;;22.50;99.90;;;;;;4119549;28;20280;-78
2022/08/05 06:16:35;;;;;;;4.97;2.97;;;22.60;99.90;;;;;;4137231;28;20302;-78
2022/08/05 06:18:37;;;;;;;5.23;2.80;;;22.60;99.90;;;;;;4136563;28;20221;-78
2022/08/05 06:20:38;;;;;;;6.13;2.83;;;22.70;99.90;;;;;;4131943;28;20216;-77
2022/08/05 06:22:40;;;;;;;3.97;2.50;;;22.70;99.90;;;;;;4118209;28;20255;-77
2022/08/05 06:24:44;;;;;;;4.50;2.80;;;22.80;99.90;;;;;;4138248;28;20214;-76
2022/08/05 06:26:46;;;;;;;6.27;3.03;;;22.80;99.90;;;;;;4125271;28;20284;-78
2022/08/05 06:28:47;;;;;;;5.30;2.50;;;22.80;99.90;;;;;;4119903;28;20210;-77
2022/08/05 06:30:49;;;;;;;4.63;2.97;;;22.80;99.90;;;;;;4136780;28;20217;-77
2022/08/05 06:32:51;;;;;;;4.97;2.50;;;22.80;99.90;;;;;;4140316;28;20264;-77
2022/08/05 06:34:54;;;;;;;3.50;2.83;;;22.80;99.90;;;;;;4135635;28;20687;-77
2022/08/05 06:36:56;;;;;;;4.50;2.57;;;22.80;99.90;;;;;;4122072;28;20720;-77
2022/08/05 06:38:57;;;;;;;4.40;2.43;;;22.90;99.90;;;;;;4140133;28;20211;-77
2022/08/05 06:41:02;;;;;;;4.70;2.80;;;22.80;99.90;;;;;;4137110;28;20200;-77
2022/08/05 06:43:06;;;;;;;3.93;2.63;;;22.90;99.90;;;;;;4108619;28;20250;-77
2022/08/05 06:45:09;;;;;;;6.37;2.73;;;22.90;99.90;;;;;;4104616;28;20259;-77
2022/08/05 06:47:11;;;;;;;3.20;2.30;;;22.90;99.90;;;;;;4138262;28;20591;-77
2022/08/05 06:49:13;;;;;;;7.70;2.73;;;22.90;99.90;;;;;;4137933;28;20298;-76
2022/08/05 06:51:15;;;;;;;3.97;2.57;;;22.90;99.90;;;;;;4139588;28;20678;-77
2022/08/05 06:53:17;;;;;;;4.33;2.77;;;23.00;99.90;;;;;;4136837;28;20708;-77
2022/08/05 06:55:18;;;;;;;3.20;2.73;;;23.00;99.90;;;;;;4139282;28;20224;-77
2022/08/05 06:57:22;;;;;;;5.73;3.20;;;23.00;99.90;;;;;;4137417;28;20591;-77
2022/08/05 06:59:23;;;;;;;4.20;2.60;;;23.00;99.90;;;;;;4140279;28;20247;-76
2022/08/05 07:01:25;;;;;;;4.57;3.13;;;23.00;99.90;;;;;;4124358;28;20241;-76
2022/08/05 07:03:29;;;;;;;6.23;2.80;;;23.00;99.90;;;;;;4140611;28;20823;-76
2022/08/05 07:05:30;;;;;;;4.20;2.83;;;23.00;99.90;;;;;;4138666;28;20207;-77
2022/08/05 07:07:32;;;;;;;3.97;2.90;;;23.00;99.90;;;;;;4138966;28;20198;-76
2022/08/05 07:09:34;;;;;;;3.53;2.73;;;23.00;99.90;;;;;;4121687;28;20218;-77
2022/08/05 07:11:36;;;;;;;5.33;2.90;;;23.00;99.90;;;;;;4139162;28;20237;-77
2022/08/05 07:18:18;;;;;;;4.60;2.60;;;23.10;99.90;;;;;;4137203;28;20227;-76
2022/08/05 07:20:20;;;;;;;3.53;2.73;;;23.10;99.90;;;;;;4140188;28;20289;-77
2022/08/05 07:22:22;;;;;;;5.17;3.00;;;23.20;99.90;;;;;;4117073;28;20234;-76
2022/08/05 07:24:25;;;;;;;4.33;2.90;;;23.20;99.90;;;;;;4141392;28;20580;-77
2022/08/05 07:26:27;;;;;;;4.57;2.67;;;23.20;99.90;;;;;;4137463;28;20265;-77
2022/08/05 07:28:30;;;;;;;5.23;3.17;;;23.20;99.90;;;;;;4139904;28;20239;-77
2022/08/05 07:30:34;;;;;;;5.03;2.87;;;23.30;99.90;;;;;;4118744;28;20246;-76
2022/08/05 07:32:36;;;;;;;3.57;2.80;;;23.30;99.90;;;;;;4138086;28;20691;-76
2022/08/05 07:34:38;;;;;;;3.93;2.80;;;23.30;99.90;;;;;;4138957;28;20211;-77
2022/08/05 07:36:40;;;;;;;5.70;3.00;;;23.40;99.90;;;;;;4118625;28;20295;-77
2022/08/05 07:38:42;;;;;;;3.80;2.50;;;23.40;99.90;;;;;;4119840;28;20298;-77
2022/08/05 07:40:44;;;;;;;5.40;3.03;;;23.40;99.90;;;;;;4138004;28;20227;-76
2022/08/05 07:42:46;;;;;;;6.10;3.07;;;23.40;99.90;;;;;;4138617;28;20239;-77
2022/08/05 07:44:48;;;;;;;4.07;3.00;;;23.40;99.90;;;;;;4137477;28;20243;-77
2022/08/05 07:46:52;;;;;;;4.67;2.93;;;23.50;99.90;;;;;;4141645;28;20204;-76
2022/08/05 07:48:55;;;;;;;3.53;2.80;;;23.50;99.90;;;;;;4136317;28;20288;-77
2022/08/05 07:50:57;;;;;;;3.37;2.40;;;23.50;99.90;;;;;;4139040;28;20705;-76
2022/08/05 07:52:59;;;;;;;3.77;2.80;;;23.50;99.90;;;;;;4135563;28;20257;-77
2022/08/05 07:55:01;;;;;;;5.03;2.90;;;23.50;99.90;;;;;;4118975;28;20266;-76
2022/08/05 07:57:04;;;;;;;4.63;2.83;;;23.50;99.90;;;;;;4138736;28;20669;-77
2022/08/05 07:59:06;;;;;;;4.60;2.90;;;23.50;99.90;;;;;;4138149;28;20236;-76
2022/08/05 08:01:08;;;;;;;5.07;2.70;;;23.50;99.90;;;;;;4123966;28;20230;-77
2022/08/05 08:03:12;;;;;;;5.80;3.30;;;23.50;99.90;;;;;;4139693;28;20670;-77
2022/08/05 08:05:15;;;;;;;4.57;3.00;;;23.60;99.90;;;;;;4141215;28;20235;-77
2022/08/05 08:07:18;;;;;;;4.57;2.73;;;23.60;99.90;;;;;;4118663;28;20585;-77
2022/08/05 08:09:20;;;;;;;5.43;2.60;;;23.70;99.90;;;;;;4136871;28;20204;-77
2022/08/05 08:11:22;;;;;;;4.03;2.67;;;23.70;99.90;;;;;;4134585;28;20262;-77
2022/08/05 08:13:23;;;;;;;5.17;2.90;;;23.70;99.90;;;;;;4134104;28;20712;-77
2022/08/05 08:15:25;;;;;;;4.00;2.87;;;23.70;99.90;;;;;;4138573;28;20209;-77
2022/08/05 08:17:28;;;;;;;5.33;2.93;;;23.70;99.90;;;;;;4136465;28;20252;-77
2022/08/05 08:19:33;;;;;;;5.70;2.90;;;23.80;99.90;;;;;;4119504;28;20217;-77
2022/08/05 08:21:35;;;;;;;7.07;3.30;;;23.90;99.90;;;;;;4144231;28;20311;-77
2022/08/05 08:23:37;;;;;;;6.70;3.17;;;23.90;99.90;;;;;;4117045;28;20303;-76
2022/08/05 08:25:39;;;;;;;4.23;3.00;;;23.90;99.90;;;;;;4137645;28;20208;-77
2022/08/05 08:27:41;;;;;;;6.10;3.10;;;23.90;99.90;;;;;;4138393;28;20259;-77
2022/08/05 08:29:43;;;;;;;4.77;2.77;;;23.90;99.90;;;;;;4123130;28;20243;-77
2022/08/05 08:31:45;;;;;;;2.90;2.50;;;24.00;99.90;;;;;;4131369;28;20259;-77
2022/08/05 08:33:47;;;;;;;4.40;2.67;;;24.10;99.90;;;;;;4136363;28;20623;-77
2022/08/05 08:35:50;;;;;;;3.77;2.50;;;24.20;99.90;;;;;;4139833;28;20550;-77
2022/08/05 08:37:52;;;;;;;3.57;2.43;;;24.20;99.90;;;;;;4138735;28;20585;-77
2022/08/05 08:39:54;;;;;;;4.40;2.80;;;24.30;99.90;;;;;;4137933;28;20251;-77
2022/08/05 08:41:58;;;;;;;5.10;2.70;;;24.30;99.90;;;;;;4133204;28;20315;-77
2022/08/05 08:44:01;;;;;;;3.27;2.40;;;24.30;99.90;;;;;;4136916;28;20211;-77
2022/08/05 08:46:04;;;;;;;4.67;2.70;;;24.40;99.90;;;;;;4143328;28;20212;-77
2022/08/05 08:48:06;;;;;;;4.23;2.80;;;24.40;99.90;;;;;;4120631;28;20205;-77
2022/08/05 08:50:12;;;;;;;3.80;2.60;;;24.50;99.90;;;;;;4134937;28;20208;-77
2022/08/05 08:52:21;;;;;;;3.87;2.70;;;24.50;99.90;;;;;;4119930;28;20237;-77
2022/08/05 08:54:22;;;;;;;4.23;2.20;;;24.50;99.90;;;;;;4136827;28;20238;-78
2022/08/05 08:56:25;;;;;;;3.27;2.30;;;24.50;99.90;;;;;;4135643;28;21017;-78
2022/08/05 08:58:29;;;;;;;2.87;2.20;;;24.60;99.90;;;;;;4119183;28;20351;-77
2022/08/05 09:00:33;;;;;;;3.77;2.30;;;24.70;99.90;;;;;;4128388;28;20215;-77
2022/08/05 09:02:35;;;;;;;2.37;2.07;;;24.70;99.90;;;;;;4137070;28;20235;-77
2022/08/05 09:04:38;;;;;;;4.80;2.50;;;24.70;99.90;;;;;;4139448;28;20204;-77
2022/08/05 09:06:40;;;;;;;3.03;2.40;;;24.70;99.90;;;;;;4136503;28;20402;-76
2022/08/05 09:08:43;;;;;;;4.20;2.47;;;24.80;99.90;;;;;;4137577;28;20235;-76
2022/08/05 09:10:45;;;;;;;4.50;2.60;;;24.80;99.90;;;;;;4122709;28;20308;-78
2022/08/05 09:12:48;;;;;;;4.37;2.40;;;24.80;99.90;;;;;;4119055;28;20237;-78
2022/08/05 09:14:50;;;;;;;4.77;2.63;;;24.80;99.90;;;;;;4135263;28;20215;-76
2022/08/05 09:16:52;;;;;;;3.33;2.23;;;24.80;99.90;;;;;;4138872;28;20296;-77
2022/08/05 09:18:54;;;;;;;3.87;2.67;;;24.80;99.90;;;;;;4135471;28;20223;-77
2022/08/05 09:20:56;;;;;;;4.13;2.70;;;24.90;99.90;;;;;;4117226;28;20281;-77
2022/08/05 09:23:13;;;;;;;3.33;2.60;;;24.90;99.90;;;;;;4134209;28;20307;-76
2022/08/05 09:25:20;;;;;;;3.90;2.40;;;25.00;99.90;;;;;;4137662;28;20677;-77
2022/08/05 09:27:32;;;;;;;4.40;2.20;;;25.10;99.90;;;;;;4138236;28;20199;-77
2022/08/05 09:29:44;;;;;;;2.30;2.10;;;25.30;99.90;;;;;;4135952;28;20239;-77
2022/08/05 09:32:03;;;;;;;2.90;2.10;;;25.40;99.90;;;;;;4116799;28;20246;-77
2022/08/05 09:34:08;;;;;;;3.60;2.10;;;25.60;99.90;;;;;;4117529;28;20258;-77
2022/08/05 09:36:10;;;;;;;2.83;2.20;;;25.80;99.90;;;;;;4133884;28;20212;-78
2022/08/05 09:38:12;;;;;;;2.87;1.90;;;25.90;99.90;;;;;;4138571;28;20654;-77
2022/08/05 09:42:42;;;;;;;2.33;2.00;;;26.00;99.90;;;;;;4204066;28;21148;-78
2022/08/05 09:44:46;;;;;;;3.10;1.93;;;26.20;99.90;;;;;;4199937;28;20204;-77
2022/08/05 09:46:48;;;;;;;2.60;2.17;;;26.30;99.90;;;;;;4200528;28;20215;-77
2022/08/05 09:48:51;;;;;;;2.87;2.13;;;26.30;99.90;;;;;;4195977;28;20209;-77
2022/08/05 09:50:54;;;;;;;2.97;1.83;;;26.40;99.90;;;;;;4204066;28;20213;-77
2022/08/05 09:52:58;;;;;;;2.20;2.00;;;26.50;99.90;;;;;;4198301;28;20228;-77
2022/08/05 09:55:02;;;;;;;2.30;2.10;;;26.60;99.90;;;;;;4191791;28;20210;-77
2022/08/05 09:57:04;;;;;;;3.00;1.83;;;26.70;99.90;;;;;;4199993;28;20214;-77
2022/08/05 09:59:09;;;;;;;2.60;2.17;;;26.80;99.90;;;;;;4198985;28;20698;-76
2022/08/05 10:01:13;;;;;;;2.57;2.20;;;26.90;99.90;;;;;;4191912;28;20294;-77
2022/08/05 10:03:15;;;;;;;2.50;2.23;;;27.00;99.20;;;;;;4199944;28;20202;-77
2022/08/05 10:05:20;;;;;;;2.70;2.27;;;27.20;98.40;;;;;;4199581;28;20548;-77
2022/08/05 10:07:22;;;;;;;2.90;2.30;;;27.30;97.10;;;;;;4204185;28;20213;-77
2022/08/05 10:09:24;;;;;;;4.50;2.40;;;27.40;96.10;;;;;;4203541;28;20619;-77
2022/08/05 10:11:26;;;;;;;3.80;2.40;;;27.50;94.60;;;;;;4198337;28;20201;-77
2022/08/05 10:13:31;;;;;;;4.40;2.80;;;27.50;94.00;;;;;;4199894;28;20213;-77
2022/08/05 10:15:36;;;;;;;3.53;2.47;;;27.50;92.80;;;;;;4201619;28;20279;-78
2022/08/05 10:17:38;;;;;;;4.83;2.70;;;27.60;92.30;;;;;;4195173;28;20683;-77
2022/08/05 10:19:41;;;;;;;3.20;2.33;;;27.60;92.20;;;;;;4200122;28;20206;-77
2022/08/05 10:21:44;;;;;;;3.43;2.40;;;27.70;92.40;;;;;;4191800;28;20233;-77
2022/08/05 10:23:47;;;;;;;2.67;2.10;;;27.70;89.10;;;;;;4198805;28;20214;-77
2022/08/05 10:25:49;;;;;;;2.87;2.23;;;27.80;90.80;;;;;;4198792;28;20229;-77
2022/08/05 10:27:52;;;;;;;3.00;2.43;;;27.90;90.20;;;;;;4200073;28;20690;-77
2022/08/05 10:29:54;;;;;;;2.80;2.17;;;27.90;88.80;;;;;;4200417;28;20205;-77
2022/08/05 10:31:58;;;;;;;2.50;2.30;;;27.90;87.90;;;;;;4198480;28;20851;-77
2022/08/05 10:34:00;;;;;;;2.90;2.27;;;27.90;87.00;;;;;;4198514;28;20205;-77
2022/08/05 10:36:04;;;;;;;3.60;2.40;;;27.90;87.60;;;;;;4198931;28;20305;-78
2022/08/05 10:38:07;;;;;;;4.33;2.63;;;27.80;85.00;;;;;;4197457;28;20215;-78
2022/08/05 10:40:18;;;;;;;3.73;2.40;;;27.70;86.70;;;;;;4201524;28;20210;-77
2022/08/05 10:42:23;;;;;;;3.90;2.60;;;27.70;82.70;;;;;;4198335;28;20790;-77
2022/08/05 10:44:26;;;;;;;4.57;2.20;;;27.70;85.50;;;;;;4197915;28;20213;-77
2022/08/05 10:46:44;;;;;;;3.27;2.70;;;27.80;85.70;;;;;;4197614;28;20301;-77
2022/08/05 10:48:49;;;;;;;3.93;2.53;;;27.90;84.20;;;;;;4198276;28;20201;-77
2022/08/05 10:51:02;;;;;;;2.97;2.23;;;28.00;83.20;;;;;;4197058;28;20236;-77